createdAt,value
2022-11-16T00:00:24.242Z,38.75
2022-11-16T00:04:26.382Z,38.30
2022-11-16T00:08:37.052Z,32.38
2022-11-16T00:12:40.104Z,28.45
2022-11-16T00:16:44.611Z,30.95
2022-11-16T00:20:56.988Z,36.17
2022-11-16T00:25:05.086Z,29.73
2022-11-16T00:29:22.297Z,31.52
2022-11-16T00:33:26.657Z,40.83
2022-11-16T00:37:29.982Z,28.02
2022-11-16T00:41:33.204Z,32.20
2022-11-16T00:45:35.398Z,27.33
2022-11-16T00:49:38.544Z,27.38
2022-11-16T00:53:41.063Z,20.65
2022-11-16T00:57:43.833Z,25.23
2022-11-16T01:06:43.553Z,24.13
2022-11-16T01:10:45.808Z,28.02
2022-11-16T01:14:48.385Z,27.42
2022-11-16T01:18:53.139Z,30.42
2022-11-16T01:22:55.996Z,26.77
2022-11-16T01:26:58.741Z,22.80
2022-11-16T01:31:05.893Z,19.80
2022-11-16T01:35:16.318Z,22.15
2022-11-16T01:39:18.769Z,18.23
2022-11-16T01:43:28.568Z,13.02
2022-11-16T01:47:37.250Z,16.23
2022-11-16T01:51:45.105Z,12.05
2022-11-16T01:55:49.033Z,15.07
2022-11-16T02:00:02.219Z,16.95
2022-11-16T02:04:15.668Z,14.57
2022-11-16T02:09:11.142Z,17.73
2022-11-16T02:13:35.901Z,21.23
2022-11-16T02:18:02.180Z,15.25
2022-11-16T02:22:17.430Z,16.27
2022-11-16T02:26:44.561Z,16.95
2022-11-16T02:30:50.805Z,12.57
2022-11-16T02:35:03.144Z,9.18
2022-11-16T02:39:10.592Z,12.70
2022-11-16T02:43:17.991Z,10.20
2022-11-16T02:47:28.969Z,7.35
2022-11-16T02:51:35.029Z,8.13
2022-11-16T02:55:38.111Z,5.30
2022-11-16T02:59:44.425Z,6.63
2022-11-16T03:03:57.287Z,6.60
2022-11-16T03:08:16.565Z,6.57
2022-11-16T03:12:24.867Z,6.38
2022-11-16T03:16:33.124Z,7.18
2022-11-16T03:20:38.343Z,6.55
2022-11-16T03:24:41.772Z,9.90
2022-11-16T03:29:00.969Z,6.65
2022-11-16T03:33:32.933Z,7.68
2022-11-16T03:37:36.388Z,6.38
2022-11-16T03:41:42.073Z,8.52
2022-11-16T03:45:46.981Z,9.93
2022-11-16T03:53:53.692Z,7.63
2022-11-16T03:57:56.258Z,9.30
2022-11-16T04:02:00.176Z,6.43
2022-11-16T04:06:20.953Z,6.95
2022-11-16T04:10:42.605Z,11.40
2022-11-16T04:15:03.739Z,5.28
2022-11-16T04:19:28.002Z,6.57
2022-11-16T04:23:48.916Z,6.78
2022-11-16T04:28:10.158Z,7.43
2022-11-16T04:32:31.644Z,5.40
2022-11-16T04:36:52.251Z,8.02
2022-11-16T04:40:54.366Z,6.68
2022-11-16T04:45:17.024Z,5.10
2022-11-16T04:49:23.430Z,5.95
2022-11-16T04:53:27.215Z,7.22
2022-11-16T04:57:42.676Z,8.13
2022-11-16T05:02:03.277Z,7.15
2022-11-16T05:06:05.718Z,6.45
2022-11-16T05:10:10.089Z,5.57
2022-11-16T05:14:13.407Z,8.50
2022-11-16T05:22:19.892Z,8.10
2022-11-16T05:30:28.804Z,7.18
2022-11-16T05:34:34.052Z,6.55
2022-11-16T05:38:37.028Z,5.97
2022-11-16T05:42:41.203Z,7.20
2022-11-16T05:46:44.801Z,7.88
2022-11-16T05:50:47.778Z,7.00
2022-11-16T05:54:57.761Z,8.55
2022-11-16T05:59:00.348Z,7.72
2022-11-16T06:03:02.419Z,8.40
2022-11-16T06:07:07.805Z,7.35
2022-11-16T06:11:11.871Z,10.60
2022-11-16T06:19:45.449Z,7.70
2022-11-16T06:23:48.081Z,5.25
2022-11-16T06:27:50.256Z,6.00
2022-11-16T06:31:53.733Z,9.53
2022-11-16T06:35:55.835Z,8.30
2022-11-16T06:40:00.273Z,8.07
2022-11-16T06:44:04.137Z,10.20
2022-11-16T06:48:10.821Z,7.32
2022-11-16T06:52:13.815Z,7.32
2022-11-16T06:56:16.554Z,5.90
2022-11-16T07:00:27.903Z,7.63
2022-11-16T07:04:32.608Z,6.03
2022-11-16T07:08:35.754Z,9.73
2022-11-16T07:12:38.222Z,8.52
2022-11-16T07:16:41.555Z,11.98
2022-11-16T07:20:43.722Z,13.32
2022-11-16T07:24:47.002Z,13.07
2022-11-16T07:28:49.437Z,18.50
2022-11-16T07:32:59.404Z,11.70
2022-11-16T07:37:21.415Z,22.63
2022-11-16T07:41:23.856Z,20.55
2022-11-16T07:45:39.203Z,13.65
2022-11-16T07:49:45.052Z,15.75
2022-11-16T07:53:58.038Z,14.18
2022-11-16T07:58:00.233Z,14.80
2022-11-16T08:02:03.333Z,13.02
2022-11-16T08:06:19.911Z,14.80
2022-11-16T08:10:23.234Z,17.50
2022-11-16T08:14:25.713Z,19.63
2022-11-16T08:18:31.896Z,19.65
2022-11-16T08:22:34.286Z,18.38
2022-11-16T08:26:37.152Z,15.38
2022-11-16T08:30:45.591Z,20.63
2022-11-16T08:34:52.633Z,17.10
2022-11-16T08:38:54.857Z,18.15
2022-11-16T08:42:59.027Z,16.45
2022-11-16T08:47:01.677Z,14.18
2022-11-16T08:51:19.603Z,16.95
2022-11-16T08:55:28.749Z,15.30
2022-11-16T08:59:31.188Z,16.00
2022-11-16T09:03:39.018Z,19.58
2022-11-16T09:07:43.468Z,15.13
2022-11-16T09:11:45.465Z,15.93
2022-11-16T09:15:47.604Z,13.55
2022-11-16T09:19:49.812Z,15.45
2022-11-16T09:23:54.178Z,12.05
2022-11-16T09:27:56.312Z,12.88
2022-11-16T09:31:58.533Z,12.90
2022-11-16T09:36:02.697Z,8.13
2022-11-16T09:40:05.390Z,7.25
2022-11-16T09:44:35.546Z,6.22
2022-11-16T09:48:39.289Z,5.95
2022-11-16T09:52:44.838Z,9.13
2022-11-16T09:56:49.137Z,6.82
2022-11-16T10:05:03.572Z,12.57
2022-11-16T10:09:05.713Z,9.68
2022-11-16T10:13:32.818Z,11.43
2022-11-16T10:18:00.020Z,7.03
2022-11-16T10:22:05.476Z,9.15
2022-11-16T10:26:30.389Z,11.98
2022-11-16T10:30:40.501Z,8.57
2022-11-16T10:34:50.185Z,8.95
2022-11-16T10:38:52.248Z,8.57
2022-11-16T10:42:57.276Z,6.60
2022-11-16T10:47:11.520Z,9.80
2022-11-16T10:51:13.574Z,8.50
2022-11-16T10:55:16.095Z,10.40
2022-11-16T10:59:21.804Z,9.45
2022-11-16T11:03:31.934Z,9.85
2022-11-16T11:07:37.884Z,13.45
2022-11-16T11:11:58.532Z,12.25
2022-11-16T11:16:15.868Z,13.48
2022-11-16T11:20:18.084Z,14.77
2022-11-16T11:28:49.651Z,13.85
2022-11-16T11:32:53.055Z,14.48
2022-11-16T11:37:02.468Z,13.13
2022-11-16T11:41:07.423Z,12.18
2022-11-16T11:45:15.617Z,10.35
2022-11-16T11:49:30.473Z,13.50
2022-11-16T11:53:49.884Z,11.60
2022-11-16T11:57:54.027Z,11.45
2022-11-16T12:01:56.061Z,11.35
2022-11-16T12:06:12.895Z,8.60
2022-11-16T12:10:55.528Z,9.20
2022-11-16T12:15:28.660Z,9.38
2022-11-16T12:20:13.279Z,8.50
2022-11-16T12:24:35.684Z,9.43
2022-11-16T12:28:57.496Z,7.72
2022-11-16T12:33:34.104Z,7.38
2022-11-16T12:38:03.667Z,13.00
2022-11-16T12:42:13.224Z,12.43
2022-11-16T12:46:18.427Z,7.40
2022-11-16T12:50:42.036Z,9.13
2022-11-16T12:55:27.463Z,10.13
2022-11-16T12:59:49.158Z,9.38
2022-11-16T13:03:58.374Z,10.25
2022-11-16T13:08:15.532Z,17.50
2022-11-16T13:12:23.540Z,17.17
2022-11-16T13:16:26.129Z,15.65
2022-11-16T13:21:04.159Z,8.88
2022-11-16T13:25:13.025Z,11.48
2022-11-16T13:29:48.537Z,17.55
2022-11-16T13:33:56.253Z,15.43
2022-11-16T13:37:58.379Z,20.35
2022-11-16T13:42:12.576Z,14.55
2022-11-16T13:46:48.214Z,15.38
2022-11-16T13:50:46.325Z,13.75
2022-11-16T13:54:55.456Z,20.90
2022-11-16T13:58:59.099Z,21.70
2022-11-16T14:03:16.478Z,20.35
2022-11-16T14:07:50.013Z,17.10
2022-11-16T14:18:07.701Z,21.02
2022-11-16T14:22:23.474Z,24.52
2022-11-16T14:26:34.107Z,14.13
2022-11-16T14:31:00.446Z,23.08
2022-11-16T14:41:25.054Z,19.77
2022-11-16T14:45:33.313Z,22.70
2022-11-16T14:49:37.618Z,19.50
2022-11-16T14:57:43.572Z,20.23
2022-11-16T15:01:45.998Z,15.32
2022-11-16T15:05:48.693Z,34.15
2022-11-16T15:09:54.739Z,17.90
2022-11-16T15:13:56.836Z,13.02
2022-11-16T15:17:58.824Z,23.10
2022-11-16T15:22:03.219Z,56.78
2022-11-16T15:26:05.374Z,30.48
2022-11-16T15:30:15.259Z,13.13
2022-11-16T15:34:19.249Z,12.18
2022-11-16T15:38:30.380Z,5.28
2022-11-16T15:42:32.544Z,8.25
2022-11-16T15:46:35.671Z,8.25
2022-11-16T15:50:37.742Z,18.73
2022-11-16T15:54:58.416Z,7.07
2022-11-16T15:59:09.594Z,11.82
2022-11-16T16:03:24.046Z,11.75
2022-11-16T16:07:41.286Z,10.15
2022-11-16T16:11:43.470Z,10.82
2022-11-16T16:15:45.703Z,10.82
2022-11-16T16:19:56.022Z,9.32
2022-11-16T16:23:58.143Z,12.05
2022-11-16T16:28:00.723Z,9.57
2022-11-16T16:32:02.993Z,25.08
2022-11-16T16:36:05.575Z,23.48
2022-11-16T16:40:08.316Z,32.42
2022-11-16T16:44:15.469Z,18.98
2022-11-16T16:48:17.945Z,27.63
2022-11-16T16:52:20.008Z,24.25
2022-11-16T16:56:22.090Z,11.98
2022-11-16T17:00:24.896Z,16.38
2022-11-16T17:04:26.919Z,15.65
2022-11-16T17:08:38.965Z,14.07
2022-11-16T17:12:41.035Z,15.65
2022-11-16T17:16:43.029Z,19.63
2022-11-16T17:20:45.597Z,45.58
2022-11-16T17:24:47.845Z,80.85
2022-11-16T17:28:54.084Z,38.47
2022-11-16T17:32:57.071Z,43.47
2022-11-16T17:36:59.088Z,48.38
2022-11-16T17:41:09.599Z,28.58
2022-11-16T17:45:12.120Z,30.85
2022-11-16T17:49:14.154Z,37.05
2022-11-16T17:53:16.132Z,32.38
2022-11-16T17:57:18.267Z,27.77
2022-11-16T18:01:20.742Z,23.70
2022-11-16T18:05:23.002Z,23.30
2022-11-16T18:09:25.313Z,29.65
2022-11-16T18:13:27.317Z,27.90
2022-11-16T18:17:31.216Z,26.58
2022-11-16T18:21:39.824Z,16.13
2022-11-16T18:25:41.898Z,19.00
2022-11-16T18:29:44.008Z,18.55
2022-11-16T18:33:49.078Z,17.40
2022-11-16T18:37:51.381Z,13.80
2022-11-16T18:41:55.079Z,20.13
2022-11-16T18:45:57.474Z,16.15
2022-11-16T18:49:59.474Z,17.23
2022-11-16T18:54:01.500Z,16.80
2022-11-16T18:58:13.029Z,25.27
2022-11-16T19:02:24.765Z,20.38
2022-11-16T19:06:26.829Z,21.83
2022-11-16T19:10:29.120Z,20.60
2022-11-16T19:14:31.149Z,27.20
2022-11-16T19:18:33.230Z,31.35
2022-11-16T19:22:35.384Z,29.25
2022-11-16T19:26:37.479Z,31.45
2022-11-16T19:30:39.461Z,42.83
2022-11-16T19:34:41.644Z,43.83
2022-11-16T19:38:45.041Z,36.78
2022-11-16T19:42:47.172Z,37.05
2022-11-16T19:46:49.234Z,47.72
2022-11-16T19:50:51.270Z,38.38
2022-11-16T19:54:53.330Z,33.42
2022-11-16T19:58:55.982Z,23.83
2022-11-16T20:02:58.331Z,29.00
2022-11-16T20:07:00.794Z,26.98
2022-11-16T20:11:10.691Z,33.13
2022-11-16T20:15:12.678Z,28.92
2022-11-16T20:19:15.792Z,28.20
2022-11-16T20:23:19.476Z,29.33
2022-11-16T20:27:21.498Z,31.08
2022-11-16T20:31:28.778Z,32.15
2022-11-16T20:35:30.898Z,47.28
2022-11-16T20:39:33.147Z,40.22
2022-11-16T20:43:35.840Z,39.25
2022-11-16T20:47:38.044Z,31.70
2022-11-16T20:51:40.215Z,31.70
2022-11-16T20:55:42.250Z,32.67
2022-11-16T20:59:44.245Z,27.30
2022-11-16T21:03:47.080Z,19.45
2022-11-16T21:07:49.240Z,27.58
2022-11-16T21:12:09.885Z,36.80
2022-11-16T21:16:15.198Z,34.72
2022-11-16T21:20:32.779Z,34.33
2022-11-16T21:24:35.421Z,45.33
2022-11-16T21:28:38.339Z,39.90
2022-11-16T21:32:40.579Z,43.72
2022-11-16T21:36:42.823Z,44.90
2022-11-16T21:40:45.308Z,33.03
2022-11-16T21:44:47.501Z,31.88
2022-11-16T21:48:52.752Z,38.00
2022-11-16T21:52:54.864Z,32.40
2022-11-16T21:56:56.958Z,35.63
2022-11-16T22:01:02.628Z,29.30
2022-11-16T22:05:26.484Z,35.83
2022-11-16T22:09:28.518Z,33.83
2022-11-16T22:13:30.572Z,28.73
2022-11-16T22:17:33.124Z,27.45
2022-11-16T22:21:35.090Z,34.40
2022-11-16T22:25:37.332Z,27.58
2022-11-16T22:29:39.586Z,21.80
2022-11-16T22:33:41.859Z,23.42
2022-11-16T22:37:44.216Z,23.55
2022-11-16T22:41:46.438Z,21.92
2022-11-16T22:45:48.801Z,18.30
2022-11-16T22:49:50.847Z,22.13
2022-11-16T22:53:54.535Z,21.60
2022-11-16T22:57:56.684Z,31.00
2022-11-16T23:01:58.684Z,39.00
2022-11-16T23:06:00.900Z,26.25
2022-11-16T23:10:03.172Z,31.42
2022-11-16T23:14:42.901Z,30.85
2022-11-16T23:18:44.944Z,39.65
2022-11-16T23:23:06.098Z,35.85
2022-11-16T23:27:28.146Z,39.58
2022-11-16T23:31:30.143Z,38.03
2022-11-16T23:35:32.570Z,33.60
2022-11-16T23:39:34.745Z,38.38
2022-11-16T23:43:55.368Z,23.15
2022-11-16T23:47:57.341Z,23.98
2022-11-16T23:51:59.419Z,28.98
2022-11-16T23:56:06.065Z,19.17
